Time;durP1;ratioP1;P1;durP2;ratioP2;P2;SDS_P1;SDS_P2;PMS_P1;PMS_P2;Temp;Humidity;BMP_temperature;BMP_pressure;BME280_temperature;BME280_humidity;BME280_pressure;Samples;Min_cycle;Max_cycle;Signal;HPM_P1;HPM_P2
2020/12/05 13:56:30;;;;;;;29.23;18.02;;;4.20;88.50;;;;;;4952909;22;30170959;-49
2020/12/05 13:59:15;;;;;;;24.75;13.40;;;4.20;88.20;;;;;;6300671;22;27391;-50
2020/12/05 14:01:59;;;;;;;14.70;10.13;;;4.20;88.40;;;;;;6299612;22;27430;-50
2020/12/05 14:04:44;;;;;;;14.90;7.47;;;4.20;88.30;;;;;;6300860;22;27419;-49
2020/12/05 14:07:31;;;;;;;12.18;6.03;;;4.20;88.20;;;;;;6300964;22;27363;-50
2020/12/05 14:10:16;;;;;;;10.38;5.55;;;4.20;88.00;;;;;;6301106;22;27367;-50
2020/12/05 14:13:00;;;;;;;8.23;5.75;;;4.10;88.10;;;;;;6300973;22;27374;-52
2020/12/05 14:15:54;;;;;;;16.77;6.40;;;4.10;87.90;;;;;;6300918;22;27993;-54
2020/12/05 14:18:40;;;;;;;18.60;6.68;;;4.10;88.00;;;;;;6300888;22;27398;-46
2020/12/05 14:21:25;;;;;;;11.43;6.28;;;4.00;89.00;;;;;;6300960;22;27363;-50
2020/12/05 14:24:10;;;;;;;16.92;7.03;;;4.00;89.40;;;;;;6300462;22;27414;-54
2020/12/05 14:26:58;;;;;;;14.40;7.38;;;4.00;89.20;;;;;;6300782;22;27996;-51
2020/12/05 14:29:45;;;;;;;10.65;6.07;;;4.00;90.00;;;;;;6255706;22;27359;-52
2020/12/05 14:32:30;;;;;;;18.33;7.57;;;4.00;90.00;;;;;;6300939;22;27344;-55
2020/12/05 14:35:16;;;;;;;10.65;7.10;;;4.00;89.80;;;;;;6300333;22;27362;-52
2020/12/05 14:38:01;;;;;;;20.35;8.35;;;3.90;90.00;;;;;;6300406;22;27433;-54
2020/12/05 14:40:45;;;;;;;12.80;7.97;;;3.80;90.00;;;;;;6300752;22;27268;-55
2020/12/05 14:43:40;;;;;;;15.27;8.90;;;3.80;90.00;;;;;;6300499;22;27274;-52
2020/12/05 14:46:27;;;;;;;13.88;7.90;;;3.80;90.10;;;;;;6300766;22;27268;-51
2020/12/05 14:49:15;;;;;;;15.77;9.15;;;3.70;90.20;;;;;;6300320;22;27377;-54
2020/12/05 14:52:00;;;;;;;17.10;8.90;;;3.60;90.30;;;;;;6300495;22;27379;-54
2020/12/05 14:54:44;;;;;;;12.90;8.70;;;3.60;90.40;;;;;;6300456;22;27363;-53
2020/12/05 14:57:33;;;;;;;14.48;9.75;;;3.60;90.30;;;;;;6299757;22;27517;-45
2020/12/05 15:00:18;;;;;;;18.63;10.25;;;3.50;90.40;;;;;;6256108;22;27443;-52
2020/12/05 15:03:05;;;;;;;19.60;11.43;;;3.40;90.40;;;;;;6300346;22;27269;-53
2020/12/05 15:05:50;;;;;;;17.67;11.10;;;3.40;90.60;;;;;;6300531;22;27273;-53
2020/12/05 15:08:37;;;;;;;15.93;11.25;;;3.40;90.70;;;;;;6300337;22;27277;-52
2020/12/05 15:11:26;;;;;;;18.90;11.50;;;3.30;90.70;;;;;;6300505;22;27419;-52
2020/12/05 15:14:14;;;;;;;22.33;10.40;;;3.30;90.70;;;;;;6299679;22;27552;-52
2020/12/05 15:17:01;;;;;;;17.15;10.73;;;3.30;90.80;;;;;;6300355;22;27293;-51
2020/12/05 15:19:45;;;;;;;16.75;11.52;;;3.30;90.80;;;;;;6300616;22;27455;-50
2020/12/05 15:22:30;;;;;;;17.42;11.38;;;3.20;90.90;;;;;;6299893;22;27549;-53
2020/12/05 15:25:14;;;;;;;17.20;11.13;;;3.20;90.90;;;;;;6300226;22;27277;-52
2020/12/05 15:28:00;;;;;;;19.23;11.85;;;3.20;90.90;;;;;;6300222;22;27284;-52
2020/12/05 15:30:44;;;;;;;19.40;12.38;;;3.20;90.90;;;;;;6300082;22;27342;-54
2020/12/05 15:33:31;;;;;;;17.75;11.82;;;3.10;90.90;;;;;;6299883;22;27284;-55
2020/12/05 15:36:19;;;;;;;20.67;11.93;;;3.10;91.00;;;;;;6300236;22;27371;-51
2020/12/05 15:39:03;;;;;;;18.27;12.38;;;3.10;91.10;;;;;;6256137;22;26862;-54
2020/12/05 15:41:49;;;;;;;17.95;11.75;;;3.10;91.10;;;;;;6300108;22;27413;-51
2020/12/05 15:44:33;;;;;;;18.10;12.25;;;3.00;91.20;;;;;;6300201;22;27995;-50
2020/12/05 15:47:18;;;;;;;18.55;12.05;;;3.00;91.10;;;;;;6299648;22;27584;-57
2020/12/05 15:50:35;;;;;;;18.60;12.27;;;3.00;91.00;;;;;;6301740;22;27417;-54
2020/12/05 15:53:21;;;;;;;21.58;12.73;;;3.00;91.10;;;;;;6300843;22;27363;-51
2020/12/05 15:56:06;;;;;;;18.52;12.20;;;3.00;91.00;;;;;;6300758;22;27906;-51
2020/12/05 15:58:50;;;;;;;20.63;12.35;;;2.90;91.10;;;;;;6301608;22;27365;-53
2020/12/05 16:01:35;;;;;;;20.02;12.45;;;2.90;91.20;;;;;;6301171;22;27408;-55
2020/12/05 16:04:20;;;;;;;18.60;12.50;;;2.90;91.20;;;;;;6300333;22;27419;-56
2020/12/05 16:07:04;;;;;;;19.50;12.00;;;2.90;91.20;;;;;;6301581;22;27420;-56
2020/12/05 16:09:49;;;;;;;20.17;12.77;;;2.90;91.20;;;;;;6301215;22;27417;-49
2020/12/05 16:12:34;;;;;;;26.98;14.63;;;2.90;91.20;;;;;;6301536;22;27419;-46
2020/12/05 16:15:18;;;;;;;24.05;14.23;;;2.90;91.20;;;;;;6300523;22;27399;-55
2020/12/05 16:18:03;;;;;;;26.17;15.05;;;2.80;91.30;;;;;;6300540;22;27824;-48
2020/12/05 16:20:47;;;;;;;25.63;15.00;;;2.80;91.30;;;;;;6301299;22;27411;-47
2020/12/05 16:23:32;;;;;;;25.60;14.45;;;2.80;91.30;;;;;;6301410;22;27414;-54
2020/12/05 16:26:17;;;;;;;27.35;15.43;;;2.80;91.70;;;;;;6301099;22;27292;-49
2020/12/05 16:29:02;;;;;;;27.27;15.75;;;2.80;91.30;;;;;;6301419;22;27382;-50
2020/12/05 16:31:46;;;;;;;25.67;15.02;;;2.80;91.40;;;;;;6301094;22;27402;-51
2020/12/05 16:34:31;;;;;;;28.95;16.33;;;2.80;91.30;;;;;;6301102;22;26836;-49
2020/12/05 16:37:19;;;;;;;24.80;13.82;;;2.80;91.30;;;;;;6300173;22;27324;-56
2020/12/05 16:40:04;;;;;;;27.35;15.15;;;2.80;91.40;;;;;;6301398;22;27354;-56
2020/12/05 16:42:48;;;;;;;24.10;14.85;;;2.80;91.40;;;;;;6300223;22;27455;-53
2020/12/05 16:45:33;;;;;;;25.98;15.75;;;2.80;91.50;;;;;;6301160;22;27386;-52
2020/12/05 16:48:17;;;;;;;37.17;19.45;;;2.70;91.50;;;;;;6301424;22;27398;-48
2020/12/05 16:51:02;;;;;;;36.10;17.80;;;2.70;91.40;;;;;;6300998;22;27363;-48
2020/12/05 16:53:46;;;;;;;34.10;18.25;;;2.70;91.40;;;;;;6300302;22;27372;-49
2020/12/05 16:56:31;;;;;;;34.47;17.48;;;2.70;91.30;;;;;;6301041;22;27391;-57
2020/12/05 16:59:16;;;;;;;29.27;17.50;;;2.70;91.30;;;;;;6301316;22;27419;-49
2020/12/05 17:02:00;;;;;;;31.95;16.45;;;2.70;91.30;;;;;;6300812;22;27264;-49
2020/12/05 17:04:45;;;;;;;30.40;16.65;;;2.70;91.40;;;;;;6301005;22;27276;-48
2020/12/05 17:07:29;;;;;;;29.55;16.58;;;2.70;91.40;;;;;;6300811;22;27414;-50
2020/12/05 17:10:14;;;;;;;29.60;17.65;;;2.70;91.50;;;;;;6301313;22;27312;-48
2020/12/05 17:12:58;;;;;;;31.15;17.08;;;2.70;91.50;;;;;;6300884;22;27324;-48
2020/12/05 17:15:43;;;;;;;32.78;19.48;;;2.70;91.50;;;;;;6300932;22;27376;-47
2020/12/05 17:18:27;;;;;;;32.75;19.00;;;2.60;91.40;;;;;;6300848;22;27332;-48
2020/12/05 17:21:16;;;;;;;34.80;18.23;;;2.60;91.40;;;;;;6299881;22;27363;-49
2020/12/05 17:24:01;;;;;;;33.25;19.10;;;2.60;91.40;;;;;;6300351;22;27793;-48
2020/12/05 17:26:48;;;;;;;32.83;19.65;;;2.60;91.40;;;;;;6300853;22;27299;-52
2020/12/05 17:29:33;;;;;;;27.17;17.38;;;2.60;91.40;;;;;;6301268;22;27347;-49
2020/12/05 17:32:17;;;;;;;34.30;19.10;;;2.60;91.40;;;;;;6300946;22;27434;-48
2020/12/05 17:35:02;;;;;;;31.42;18.48;;;2.60;91.50;;;;;;6300456;22;27442;-47
2020/12/05 17:37:47;;;;;;;34.10;19.42;;;2.60;91.50;;;;;;6300819;22;27410;-49
2020/12/05 17:40:31;;;;;;;32.05;17.85;;;2.60;91.50;;;;;;6301000;22;27435;-56
2020/12/05 17:43:16;;;;;;;31.48;17.77;;;2.60;91.50;;;;;;6300251;22;27337;-50
2020/12/05 17:46:01;;;;;;;36.45;18.77;;;2.60;91.50;;;;;;6301078;22;27811;-48
2020/12/05 17:48:45;;;;;;;32.22;18.35;;;2.60;91.60;;;;;;6301217;22;27415;-48
2020/12/05 17:51:30;;;;;;;33.53;18.40;;;2.60;91.50;;;;;;6301231;22;27335;-48
2020/12/05 17:54:17;;;;;;;32.65;18.85;;;2.60;91.50;;;;;;6300801;22;27376;-48
2020/12/05 17:57:05;;;;;;;29.67;16.83;;;2.60;91.50;;;;;;6300477;22;27363;-55
2020/12/05 17:59:51;;;;;;;30.25;16.65;;;2.60;91.60;;;;;;6300711;22;27355;-48
2020/12/05 18:02:35;;;;;;;25.23;15.20;;;2.60;91.70;;;;;;6300511;22;27405;-54
2020/12/05 18:05:20;;;;;;;27.92;16.50;;;2.60;91.60;;;;;;6301180;22;27386;-50
2020/12/05 18:08:05;;;;;;;29.60;16.70;;;2.60;91.60;;;;;;6300669;22;27371;-48
2020/12/05 18:10:49;;;;;;;29.55;16.40;;;2.60;91.60;;;;;;6300547;22;27438;-48
2020/12/05 18:13:34;;;;;;;27.73;15.90;;;2.60;91.60;;;;;;6301092;22;27420;-52
2020/12/05 18:16:18;;;;;;;27.08;17.02;;;2.60;91.70;;;;;;6300673;22;27413;-47
2020/12/05 18:19:03;;;;;;;31.33;18.27;;;2.60;91.70;;;;;;6300582;22;27388;-47
2020/12/05 18:21:47;;;;;;;29.80;17.83;;;2.60;91.70;;;;;;6300766;22;27527;-49
2020/12/05 18:24:32;;;;;;;28.70;16.40;;;2.60;91.70;;;;;;6299707;22;27419;-56
2020/12/05 18:27:17;;;;;;;27.40;17.90;;;2.60;91.70;;;;;;6300616;22;27340;-48
2020/12/05 18:30:05;;;;;;;30.63;16.42;;;2.60;91.70;;;;;;6300256;22;27398;-47
2020/12/05 18:32:50;;;;;;;31.25;18.13;;;2.60;91.70;;;;;;6300525;22;27359;-49
2020/12/05 18:35:34;;;;;;;29.83;17.00;;;2.60;91.70;;;;;;6300607;22;27444;-53
2020/12/05 18:38:19;;;;;;;26.55;16.75;;;2.60;91.70;;;;;;6299678;22;27409;-55
2020/12/05 18:41:08;;;;;;;29.27;17.23;;;2.60;91.70;;;;;;6300734;22;27405;-52
2020/12/05 18:43:54;;;;;;;28.52;16.08;;;2.60;91.70;;;;;;6300844;22;27421;-55
2020/12/05 18:46:39;;;;;;;28.42;16.33;;;2.60;91.70;;;;;;6299635;22;27372;-55
2020/12/05 18:49:23;;;;;;;27.92;16.85;;;2.50;91.60;;;;;;6300784;22;27338;-54
2020/12/05 18:52:08;;;;;;;33.03;17.52;;;2.50;91.70;;;;;;6300400;22;27355;-47
2020/12/05 18:54:52;;;;;;;31.33;16.67;;;2.50;91.70;;;;;;6300317;22;27512;-47
2020/12/05 18:57:37;;;;;;;27.00;16.13;;;2.50;91.70;;;;;;6299726;22;27353;-47
2020/12/05 19:00:21;;;;;;;27.92;16.45;;;2.50;91.70;;;;;;6300333;22;27339;-47
2020/12/05 19:03:06;;;;;;;28.88;17.05;;;2.60;91.70;;;;;;6300683;22;27431;-47
2020/12/05 19:05:52;;;;;;;25.52;15.73;;;2.50;91.80;;;;;;6300544;22;27445;-47
2020/12/05 19:08:36;;;;;;;24.40;15.13;;;2.50;91.80;;;;;;6300632;22;27402;-47
2020/12/05 19:11:25;;;;;;;27.70;16.25;;;2.50;91.80;;;;;;6300530;22;27360;-47
2020/12/05 19:14:09;;;;;;;27.52;16.15;;;2.50;91.80;;;;;;6277589;22;27882;-47
2020/12/05 19:16:54;;;;;;;27.42;17.25;;;2.50;91.80;;;;;;6300049;22;27334;-47
2020/12/05 19:19:38;;;;;;;24.48;15.50;;;2.50;91.80;;;;;;6300204;22;27359;-47
2020/12/05 19:22:23;;;;;;;27.25;16.95;;;2.50;91.80;;;;;;6300328;22;27403;-47
2020/12/05 19:25:07;;;;;;;28.42;16.98;;;2.50;91.80;;;;;;6300927;22;27600;-49
2020/12/05 19:27:52;;;;;;;28.15;16.45;;;2.50;91.80;;;;;;6301772;22;27273;-47
2020/12/05 19:30:37;;;;;;;27.88;15.80;;;2.50;91.80;;;;;;6301809;22;27265;-47
2020/12/05 19:33:21;;;;;;;25.77;15.57;;;2.50;91.90;;;;;;6301844;22;27334;-47
2020/12/05 19:36:06;;;;;;;24.17;15.65;;;2.50;91.80;;;;;;6301915;22;27417;-47
2020/12/05 19:38:51;;;;;;;26.45;16.02;;;2.50;91.80;;;;;;6301359;22;27433;-47
2020/12/05 19:41:36;;;;;;;23.30;15.88;;;2.50;91.80;;;;;;6301478;22;27367;-47
2020/12/05 19:44:20;;;;;;;26.02;15.77;;;2.50;91.80;;;;;;6301338;22;27391;-47
2020/12/05 19:47:05;;;;;;;27.52;14.63;;;2.50;91.90;;;;;;6301202;22;27580;-47
2020/12/05 19:49:52;;;;;;;25.10;15.18;;;2.50;91.90;;;;;;6301685;22;27416;-56
2020/12/05 19:52:37;;;;;;;27.67;16.48;;;2.50;91.90;;;;;;6301014;22;27293;-52
2020/12/05 19:55:21;;;;;;;23.23;15.75;;;2.50;92.30;;;;;;6301686;22;27304;-51
2020/12/05 19:58:06;;;;;;;28.27;15.65;;;2.50;91.90;;;;;;6301650;22;27955;-51
2020/12/05 20:00:50;;;;;;;27.25;16.23;;;2.50;91.90;;;;;;6301512;22;27367;-51
2020/12/05 20:03:35;;;;;;;29.92;15.80;;;2.50;92.00;;;;;;6301354;22;27407;-54
2020/12/05 20:06:20;;;;;;;28.38;15.30;;;2.50;91.90;;;;;;6301309;22;27417;-56
2020/12/05 20:09:06;;;;;;;26.88;16.00;;;2.50;91.90;;;;;;6301552;22;27371;-55
2020/12/05 20:11:51;;;;;;;26.50;16.00;;;2.50;92.00;;;;;;6301516;22;27444;-54
2020/12/05 20:14:36;;;;;;;29.73;15.20;;;2.50;91.90;;;;;;6301352;22;27382;-54
2020/12/05 20:17:20;;;;;;;26.30;15.48;;;2.50;91.90;;;;;;6300590;22;27356;-53
2020/12/05 20:20:05;;;;;;;24.65;14.65;;;2.50;92.00;;;;;;6301014;22;27870;-53
2020/12/05 20:22:50;;;;;;;21.38;13.63;;;2.50;92.00;;;;;;6301316;22;27394;-53
2020/12/05 20:25:35;;;;;;;25.25;14.93;;;2.50;92.00;;;;;;6301551;22;27390;-55
2020/12/05 20:28:19;;;;;;;23.20;14.23;;;2.40;92.00;;;;;;6301462;22;27343;-53
2020/12/05 20:31:04;;;;;;;23.35;14.20;;;2.50;92.00;;;;;;6301085;22;27380;-53
2020/12/05 20:33:48;;;;;;;22.73;14.40;;;2.50;92.00;;;;;;6301108;22;27504;-54
2020/12/05 20:36:32;;;;;;;22.88;14.25;;;2.50;92.00;;;;;;6301485;22;27355;-54
2020/12/05 20:39:17;;;;;;;25.25;14.85;;;2.50;92.00;;;;;;6301456;22;27500;-55
2020/12/05 20:42:02;;;;;;;22.55;14.25;;;2.40;92.00;;;;;;6300305;22;27852;-56
2020/12/05 20:44:46;;;;;;;22.85;14.15;;;2.50;92.00;;;;;;6300990;22;27435;-55
2020/12/05 20:47:31;;;;;;;22.23;14.18;;;2.50;92.00;;;;;;6300934;22;27328;-54
2020/12/05 20:50:15;;;;;;;22.65;14.05;;;2.50;92.00;;;;;;6301108;22;27293;-55
2020/12/05 20:53:00;;;;;;;24.50;13.48;;;2.40;91.80;;;;;;6300962;22;27905;-56
2020/12/05 20:55:44;;;;;;;33.45;16.50;;;2.50;92.00;;;;;;6300801;22;27299;-56
2020/12/05 20:58:29;;;;;;;27.52;16.13;;;2.40;92.00;;;;;;6300999;22;27277;-56
2020/12/05 21:01:13;;;;;;;27.70;15.68;;;2.40;92.00;;;;;;6300845;22;27375;-54
2020/12/05 21:03:58;;;;;;;28.45;15.65;;;2.40;92.00;;;;;;6301330;22;27274;-54
2020/12/05 21:06:42;;;;;;;24.23;15.57;;;2.40;92.00;;;;;;6300880;22;27295;-55
2020/12/05 21:09:27;;;;;;;23.58;15.32;;;2.40;92.00;;;;;;6301369;22;27279;-55
2020/12/05 21:12:11;;;;;;;23.08;15.32;;;2.40;92.00;;;;;;6301005;22;26888;-52
2020/12/05 21:14:56;;;;;;;25.00;16.67;;;2.40;92.00;;;;;;6300896;22;27816;-50
2020/12/05 21:17:40;;;;;;;24.10;14.98;;;2.40;92.00;;;;;;6300786;22;27351;-54
2020/12/05 21:20:28;;;;;;;24.48;15.70;;;2.40;92.10;;;;;;6301272;22;27394;-56
2020/12/05 21:23:13;;;;;;;22.88;14.82;;;2.40;92.20;;;;;;6301218;22;27332;-53
2020/12/05 21:25:57;;;;;;;23.02;15.77;;;2.40;92.10;;;;;;6301243;22;27274;-53
2020/12/05 21:28:44;;;;;;;25.08;15.40;;;2.40;92.00;;;;;;6300936;22;27450;-53
2020/12/05 21:31:29;;;;;;;28.25;17.10;;;2.40;92.10;;;;;;6301257;22;27276;-56
2020/12/05 21:34:14;;;;;;;26.23;15.68;;;2.40;92.10;;;;;;6301240;22;27338;-56
2020/12/05 21:37:01;;;;;;;31.45;17.15;;;2.40;92.00;;;;;;6301180;22;27788;-57
2020/12/05 21:39:46;;;;;;;29.88;17.50;;;2.40;92.10;;;;;;6300853;22;27337;-53
2020/12/05 21:42:30;;;;;;;28.88;17.10;;;2.40;92.00;;;;;;6300548;22;27366;-55
2020/12/05 21:45:15;;;;;;;32.50;17.80;;;2.40;92.10;;;;;;6300266;22;27330;-54
2020/12/05 21:47:59;;;;;;;30.52;17.85;;;2.40;92.10;;;;;;6299782;22;27765;-53
2020/12/05 21:50:45;;;;;;;32.75;18.42;;;2.40;92.10;;;;;;6301013;22;27284;-54
2020/12/05 21:53:29;;;;;;;30.00;19.50;;;2.40;92.20;;;;;;6300726;22;27370;-53
2020/12/05 21:56:14;;;;;;;29.25;17.30;;;2.40;92.20;;;;;;6299440;22;27296;-52
2020/12/05 21:58:59;;;;;;;32.50;19.08;;;2.40;92.20;;;;;;6300599;22;27335;-54
2020/12/05 22:01:44;;;;;;;28.48;18.10;;;2.40;92.20;;;;;;6300502;22;27479;-54
2020/12/05 22:04:29;;;;;;;34.15;18.67;;;2.40;92.30;;;;;;6300796;22;27292;-54
2020/12/05 22:07:13;;;;;;;36.25;20.27;;;2.40;92.30;;;;;;6299691;22;27273;-56
2020/12/05 22:09:58;;;;;;;34.42;19.50;;;2.40;92.30;;;;;;6300053;22;27871;-54
2020/12/05 22:12:45;;;;;;;40.17;20.42;;;2.30;92.30;;;;;;6278284;22;27269;-54
2020/12/05 22:15:29;;;;;;;34.88;18.85;;;2.40;92.40;;;;;;6300999;22;27354;-54
2020/12/05 22:18:16;;;;;;;31.77;18.73;;;2.40;92.30;;;;;;6300639;22;27338;-54
2020/12/05 22:21:01;;;;;;;31.95;19.40;;;2.40;92.40;;;;;;6300719;22;27555;-53
2020/12/05 22:23:45;;;;;;;31.90;17.65;;;2.40;92.30;;;;;;6299667;22;27333;-52
2020/12/05 22:26:31;;;;;;;33.63;19.48;;;2.40;92.40;;;;;;6300717;22;27331;-50
2020/12/05 22:29:16;;;;;;;31.23;18.50;;;2.40;92.40;;;;;;6300617;22;27270;-58
2020/12/05 22:32:01;;;;;;;30.00;18.00;;;2.40;92.40;;;;;;6300853;22;27785;-50
2020/12/05 22:34:46;;;;;;;32.20;19.10;;;2.40;92.40;;;;;;6300152;22;27355;-51
2020/12/05 22:37:30;;;;;;;32.20;19.30;;;2.30;92.30;;;;;;6301026;22;27355;-50
2020/12/05 22:40:15;;;;;;;30.10;18.52;;;2.40;92.30;;;;;;6300920;22;27256;-51
2020/12/05 22:43:00;;;;;;;38.00;20.02;;;2.40;92.30;;;;;;6300492;22;27261;-51
2020/12/05 22:45:44;;;;;;;30.95;18.30;;;2.40;92.30;;;;;;6300506;22;27304;-53
2020/12/05 22:48:28;;;;;;;27.67;17.58;;;2.40;92.30;;;;;;6300608;22;27306;-53
2020/12/05 22:51:13;;;;;;;30.67;18.30;;;2.40;92.30;;;;;;6300583;22;27280;-50
2020/12/05 22:53:57;;;;;;;30.25;17.55;;;2.40;92.40;;;;;;6300460;22;27773;-51
2020/12/05 22:56:42;;;;;;;27.45;17.70;;;2.40;92.30;;;;;;6299837;22;27365;-51
2020/12/05 22:59:27;;;;;;;29.63;19.20;;;2.40;92.40;;;;;;6300787;22;27402;-50
2020/12/05 23:02:11;;;;;;;30.48;17.92;;;2.40;92.40;;;;;;6300025;22;27332;-53
2020/12/05 23:04:56;;;;;;;30.92;20.08;;;2.40;92.50;;;;;;6300289;22;27351;-48
2020/12/05 23:07:40;;;;;;;27.98;17.48;;;2.30;92.40;;;;;;6300290;22;27414;-47
2020/12/05 23:10:25;;;;;;;28.75;18.33;;;2.40;92.50;;;;;;6300717;22;27397;-50
2020/12/05 23:13:14;;;;;;;25.17;16.75;;;2.40;92.50;;;;;;6300290;22;27359;-48
2020/12/05 23:15:59;;;;;;;30.35;18.50;;;2.40;92.50;;;;;;6300228;22;27808;-49
2020/12/05 23:18:44;;;;;;;28.63;16.90;;;2.40;92.60;;;;;;6300583;22;27276;-48
2020/12/05 23:21:28;;;;;;;28.42;17.80;;;2.40;92.60;;;;;;6300501;22;27339;-49
2020/12/05 23:24:14;;;;;;;26.77;17.00;;;2.30;92.50;;;;;;6300486;22;27342;-48
2020/12/05 23:26:58;;;;;;;32.03;17.05;;;2.40;92.60;;;;;;6300407;22;27327;-47
2020/12/05 23:29:43;;;;;;;26.83;17.20;;;2.40;92.60;;;;;;6299667;22;27323;-50
2020/12/05 23:35:47;;;;;;;27.55;16.98;;;2.40;92.70;;;;;;6206289;23;26875;-49
2020/12/05 23:38:32;;;;;;;24.85;15.60;;;2.40;92.70;;;;;;6300111;22;27424;-52
2020/12/05 23:41:17;;;;;;;25.48;15.32;;;2.30;92.60;;;;;;6299334;22;27374;-50
2020/12/05 23:44:08;;;;;;;26.25;15.93;;;2.30;92.60;;;;;;6300168;22;27280;-49
2020/12/05 23:46:53;;;;;;;25.30;15.18;;;2.40;92.70;;;;;;6299988;22;27268;-49
2020/12/05 23:49:40;;;;;;;23.00;15.35;;;2.40;92.70;;;;;;6299904;22;27805;-49
2020/12/05 23:52:25;;;;;;;23.17;15.40;;;2.30;92.60;;;;;;6300280;22;27400;-49
2020/12/05 23:55:09;;;;;;;20.13;12.80;;;2.40;92.70;;;;;;6299928;22;27354;-52
2020/12/05 23:57:54;;;;;;;23.77;14.15;;;2.30;93.10;;;;;;6299992;22;27339;-50
